»·PEaware :: UAL531 KLAX-KLAS

UAL531 :: KLAX-KLAS

FLIGHT INFORMATION

Flight Status: Arrived
Operator:
United Airlines
More flights by this operator :: More flights under this callsign
Pilot: Vimal G. (13143)
Aircraft: BOEING 737-800
(B738)
More flights by this aircraft type
Origin: KLAX Los Angeles Intl
United States
Destination: KLAS McCarran Intl
United States
More flights between these airports :: More routes between these airports
Route: +ORCKA2 MISEN KEPEC6
File this flight plan on PilotEdge
Remarks: PBN / A1B1C1D1S1S2 DOF / 180106 REG / N806SB OPR / UAL PER / C RMK / TCAS SIMBRIEF
Altitude:
(Current/Filed)
33,000ft
Speed:
(Current/Filed)
444kts
Departed: 05-Jan-18 08:24 PM
Arrived: 05-Jan-18 09:20 PM
Distance/Time
Traveled:
205nm/0:56
Distance/Time
To Go:
Arrived

Flight Plot

Page will automatically refresh every two minutes.

Flight plan parsing failed; only flown route is shown


Map Options




Map Legend


Flown Route
Filed Route
Departure Airport
Arrival Airport
Navaid (VOR, NDB)
Fix

Horizontal Profiles

Position Reports

Time Latitude Longitude Heading Altitude Ground
Speed
05-Jan-18 19:35 33.941145 -118.400204 95 113ft 0kts
05-Jan-18 19:36 33.941145 -118.400204 95 113ft 0kts
05-Jan-18 19:37 33.941145 -118.400204 95 113ft 0kts
05-Jan-18 19:38 33.941145 -118.400204 95 113ft 0kts
05-Jan-18 19:39 33.941145 -118.400204 95 113ft 0kts
05-Jan-18 19:40 33.941145 -118.400204 95 113ft 0kts
05-Jan-18 19:41 33.941145 -118.400204 95 113ft 0kts
05-Jan-18 19:42 33.941145 -118.400204 95 113ft 0kts
05-Jan-18 19:43 33.941145 -118.400204 95 113ft 0kts
05-Jan-18 19:44 33.941145 -118.400204 95 113ft 0kts
05-Jan-18 19:45 33.941145 -118.400204 95 113ft 0kts
05-Jan-18 19:46 33.941145 -118.400204 95 113ft 0kts
05-Jan-18 19:47 33.941145 -118.400204 95 113ft 0kts
05-Jan-18 19:48 33.941145 -118.400204 95 113ft 0kts
05-Jan-18 19:49 33.941145 -118.400204 95 113ft 0kts
05-Jan-18 19:50 33.941145 -118.400204 95 113ft 0kts
05-Jan-18 19:51 33.941145 -118.400204 95 113ft 0kts
05-Jan-18 19:52 33.941145 -118.400204 95 113ft 0kts
05-Jan-18 19:53 33.941145 -118.400204 95 113ft 0kts
05-Jan-18 19:54 33.941145 -118.400204 95 113ft 0kts
05-Jan-18 19:55 33.941145 -118.400204 95 113ft 0kts
05-Jan-18 19:56 33.941145 -118.400204 95 113ft 0kts
05-Jan-18 19:57 33.941145 -118.400204 95 113ft 0kts
05-Jan-18 19:58 33.941145 -118.400204 95 113ft 0kts
05-Jan-18 19:59 33.941145 -118.400204 95 113ft 0kts
05-Jan-18 20:00 33.941145 -118.400204 95 113ft 0kts
05-Jan-18 20:01 33.941145 -118.400204 95 113ft 0kts
05-Jan-18 20:02 33.941145 -118.400204 95 113ft 0kts
05-Jan-18 20:03 33.941145 -118.400204 95 113ft 0kts
05-Jan-18 20:04 33.941145 -118.400204 95 113ft 0kts
05-Jan-18 20:05 33.941145 -118.400204 95 113ft 0kts
05-Jan-18 20:06 33.941145 -118.400204 95 113ft 0kts
05-Jan-18 20:07 33.941145 -118.400204 95 113ft 0kts
05-Jan-18 20:08 33.941145 -118.400204 95 113ft 0kts
05-Jan-18 20:09 33.941145 -118.400204 95 113ft 0kts
05-Jan-18 20:10 33.941176 -118.400637 103 113ft 2kts
05-Jan-18 20:11 33.941427 -118.400837 173 113ft 0kts
05-Jan-18 20:12 33.941426 -118.400837 173 113ft 0kts
05-Jan-18 20:13 33.941426 -118.400837 173 113ft 0kts
05-Jan-18 20:14 33.941426 -118.400837 173 113ft 0kts
05-Jan-18 20:15 33.941426 -118.400837 173 113ft 0kts
05-Jan-18 20:16 33.941426 -118.400837 173 113ft 0kts
05-Jan-18 20:17 33.941426 -118.400837 173 113ft 0kts
05-Jan-18 20:18 33.941426 -118.400837 173 113ft 0kts
05-Jan-18 20:19 33.941426 -118.400837 173 113ft 0kts
05-Jan-18 20:20 33.940699 -118.400742 174 113ft 9kts
05-Jan-18 20:21 33.938858 -118.399049 80 113ft 8kts
05-Jan-18 20:22 33.939249 -118.395558 83 113ft 12kts
05-Jan-18 20:23 33.939680 -118.391222 83 113ft 13kts
05-Jan-18 20:24 33.940163 -118.386433 82 113ft 14kts
05-Jan-18 20:25 33.940683 -118.381427 83 113ft 15kts
05-Jan-18 20:26 33.940611 -118.380513 115 113ft 3kts
05-Jan-18 20:27 33.940319 -118.380057 140 112ft 0kts
05-Jan-18 20:28 33.940254 -118.380013 158 113ft 3kts
05-Jan-18 20:29 33.939585 -118.382158 263 112ft 23kts
05-Jan-18 20:30 33.935741 -118.427440 262 2018ft 166kts
05-Jan-18 20:31 33.928017 -118.482740 244 3006ft 170kts
05-Jan-18 20:32 33.906809 -118.533846 243 4547ft 172kts
05-Jan-18 20:33 33.882507 -118.580283 199 7003ft 170kts
05-Jan-18 20:34 33.848077 -118.549886 91 9117ft 190kts
05-Jan-18 20:35 33.857219 -118.491424 22 10947ft 199kts
05-Jan-18 20:36 33.907786 -118.468477 30 12942ft 201kts
05-Jan-18 20:37 33.947155 -118.416397 57 14264ft 243kts
05-Jan-18 20:38 33.988454 -118.338698 58 15870ft 292kts
05-Jan-18 20:39 34.033380 -118.254968 54 18174ft 308kts
05-Jan-18 20:40 34.083030 -118.167814 55 20365ft 323kts
05-Jan-18 20:41 34.131537 -118.082137 55 22273ft 336kts
05-Jan-18 20:42 34.184736 -117.987218 55 24145ft 349kts
05-Jan-18 20:43 34.240806 -117.887220 54 25612ft 372kts
05-Jan-18 20:44 34.299664 -117.782291 54 27416ft 380kts
05-Jan-18 20:45 34.359243 -117.676702 52 29167ft 382kts
05-Jan-18 20:46 34.421019 -117.572568 52 30721ft 383kts
05-Jan-18 20:47 34.484584 -117.464550 52 31354ft 413kts
05-Jan-18 20:48 34.551305 -117.351081 51 32820ft 416kts
05-Jan-18 20:49 34.618809 -117.236689 52 33251ft 438kts
05-Jan-18 20:50 34.691398 -117.113654 52 33235ft 450kts
05-Jan-18 20:51 34.763789 -116.991093 51 33239ft 444kts
05-Jan-18 20:52 34.833724 -116.872823 50 32570ft 402kts
05-Jan-18 20:53 34.897439 -116.765384 50 30565ft 383kts
05-Jan-18 20:54 34.959935 -116.656893 52 28615ft 410kts
05-Jan-18 20:55 35.024184 -116.542531 52 26502ft 410kts
05-Jan-18 20:56 35.088513 -116.428355 52 24330ft 406kts
05-Jan-18 20:57 35.155063 -116.336921 41 24274ft 406kts
05-Jan-18 20:58 35.231634 -116.240678 42 24269ft 398kts
05-Jan-18 20:59 35.309228 -116.142534 42 23104ft 404kts
05-Jan-18 21:00 35.386203 -116.045134 42 20909ft 395kts
05-Jan-18 21:01 35.461672 -115.949740 43 18716ft 385kts
05-Jan-18 21:02 35.534658 -115.857586 43 16558ft 379kts
05-Jan-18 21:03 35.608112 -115.764935 43 14388ft 378kts
05-Jan-18 21:04 35.680800 -115.673320 44 13022ft 369kts
05-Jan-18 21:05 35.745747 -115.591648 33 13008ft 316kts
05-Jan-18 21:06 35.829556 -115.571884 359 13014ft 306kts
05-Jan-18 21:07 35.914475 -115.566788 358 13011ft 311kts
05-Jan-18 21:08 35.985009 -115.512593 65 12623ft 325kts
05-Jan-18 21:09 36.019169 -115.411839 67 11055ft 313kts
05-Jan-18 21:10 36.027227 -115.321908 97 10824ft 265kts
05-Jan-18 21:11 36.020599 -115.230524 97 9338ft 269kts
05-Jan-18 21:12 36.014508 -115.142879 96 8700ft 250kts
05-Jan-18 21:13 36.008896 -115.058318 95 8015ft 244kts
05-Jan-18 21:14 36.003831 -114.973498 94 8009ft 248kts
05-Jan-18 21:15 35.998749 -114.888639 93 8009ft 248kts
05-Jan-18 21:16 35.993374 -114.802052 94 7003ft 264kts
05-Jan-18 21:17 36.028451 -114.730318 13 5108ft 268kts
05-Jan-18 21:18 36.078844 -114.765390 278 4989ft 203kts
05-Jan-18 21:19 36.075166 -114.826638 267 5013ft 175kts
05-Jan-18 21:20 36.073789 -114.887083 270 5006ft 176kts
05-Jan-18 21:21 36.073557 -114.947224 271 4958ft 172kts
05-Jan-18 21:22 36.073609 -115.001822 271 4100ft 150kts
05-Jan-18 21:23 36.073646 -115.044138 270 3431ft 143kts
05-Jan-18 21:24 36.073663 -115.101324 269 2551ft 142kts
05-Jan-18 21:25 36.073750 -115.143297 280 2122ft 55kts
05-Jan-18 21:26 36.074795 -115.146046 303 2121ft 3kts
05-Jan-18 21:27 36.077663 -115.145448 93 2121ft 9kts
05-Jan-18 21:28 36.078282 -115.143142 88 2121ft 9kts
05-Jan-18 21:29 36.078356 -115.139894 49 2121ft 6kts
05-Jan-18 21:30 36.079795 -115.140514 25 2121ft 2kts
05-Jan-18 21:31 36.079915 -115.140402 38 2121ft 0kts
05-Jan-18 21:32 36.079982 -115.140326 52 2121ft 0kts
05-Jan-18 21:33 36.079982 -115.140326 52 2121ft 0kts
05-Jan-18 21:34 36.079982 -115.140326 52 2121ft 0kts
05-Jan-18 21:35 36.079982 -115.140326 52 2121ft 0kts
05-Jan-18 21:36 36.079982 -115.140326 52 2121ft 0kts
05-Jan-18 21:37 36.079982 -115.140326 52 2121ft 0kts
05-Jan-18 21:38 36.079982 -115.140326 52 2121ft 0kts

Navigation Log

Ident Type
Flight plan parsing failed, navigation log unavailable